This is the latest recevied weather packets stored in our database for station/object OM6ACB-6. If no packets are shown the sender has not sent any weather packets the latest 10 day(s).
| Time | Temp. | Humidity | Pressure | Rain* | Wind** | Luminosity | Snow |
|---|---|---|---|---|---|---|---|
| 1777905855 | 24.44° C | 20% | 1019.4 hPa | 0 mm | - | - | - |
| 1777905255 | 24.44° C | 20% | 1019.4 hPa | 0 mm | - | - | - |
| 1777904655 | 25.56° C | 20% | 1019.6 hPa | 0 mm | - | - | - |
| 1777904054 | 26.67° C | 20% | 1020 hPa | 0 mm | - | - | - |
| 1777903454 | 25° C | 20% | 1019.7 hPa | 0 mm | - | - | - |
| 1777902854 | 25.56° C | 20% | 1019.9 hPa | 0 mm | - | - | - |
| 1777902253 | 26.11° C | 20% | 1020 hPa | 0 mm | - | - | - |
| 1777901653 | 25.56° C | 20% | 1020 hPa | 0 mm | - | - | - |
| 1777901053 | 25° C | 20% | 1020.2 hPa | 0 mm | - | - | - |
| 1777900453 | 25.56° C | 20% | 1020.4 hPa | 0 mm | - | - | - |
| 1777899852 | 25.56° C | 20% | 1020.4 hPa | 0 mm | - | - | - |
| 1777899252 | 26.11° C | 20% | 1020.6 hPa | 0 mm | - | - | - |
| 1777898652 | 25° C | 20% | 1020.5 hPa | 0 mm | - | - | - |
| 1777898051 | 27.22° C | 20% | 1020.7 hPa | 0 mm | - | - | - |
| 1777897451 | 25.56° C | 20% | 1020.7 hPa | 0 mm | - | - | - |
| 1777896851 | 26.11° C | 20% | 1021 hPa | 0 mm | - | - | - |
| 1777896250 | 25.56° C | 20% | 1020.9 hPa | 0 mm | - | - | - |
| 1777895650 | 25.56° C | 20% | 1021.1 hPa | 0 mm | - | - | - |
| 1777895050 | 25° C | 20% | 1021.2 hPa | 0 mm | - | - | - |
| 1777894450 | 24.44° C | 20% | 1021.2 hPa | 0 mm | - | - | - |
| 1777893849 | 25° C | 20% | 1021.3 hPa | 0 mm | - | - | - |
| 1777893249 | 26.11° C | 20% | 1021.5 hPa | 0 mm | - | - | - |
| 1777892649 | 25° C | 20% | 1021.4 hPa | 0 mm | - | - | - |
| 1777892048 | 24.44° C | 20% | 1021.4 hPa | 0 mm | - | - | - |
| 1777891448 | 24.44° C | 20% | 1021.5 hPa | 0 mm | - | - | - |
* Rain latest hour (hover to see other rain measurements)
** Current wind speed in m/s (hover to see current wind gust speed)